createdAt,value
2024-03-17T00:00:44.198Z,5.29
2024-03-17T00:01:44.553Z,5.29
2024-03-17T00:02:44.935Z,5.31
2024-03-17T00:03:45.257Z,5.29
2024-03-17T00:04:45.619Z,5.28
2024-03-17T00:05:45.980Z,5.28
2024-03-17T00:06:46.363Z,5.28
2024-03-17T00:07:46.744Z,5.31
2024-03-17T00:08:47.091Z,5.33
2024-03-17T00:09:47.447Z,5.34
2024-03-17T00:10:47.782Z,5.33
2024-03-17T00:11:48.189Z,5.31
2024-03-17T00:12:48.507Z,5.28
2024-03-17T00:13:48.875Z,5.26
2024-03-17T00:14:49.225Z,5.25
2024-03-17T00:15:49.584Z,5.23
2024-03-17T00:16:49.941Z,5.25
2024-03-17T00:17:50.328Z,5.25
2024-03-17T00:18:50.641Z,5.23
2024-03-17T00:19:51.038Z,5.20
2024-03-17T00:20:51.380Z,5.23
2024-03-17T00:21:51.763Z,5.23
2024-03-17T00:22:52.110Z,5.22
2024-03-17T00:23:52.422Z,5.19
2024-03-17T00:24:52.778Z,5.16
2024-03-17T00:25:53.118Z,5.16
2024-03-17T00:26:53.615Z,5.15
2024-03-17T00:27:53.883Z,5.18
2024-03-17T00:28:54.221Z,5.20
2024-03-17T00:29:54.936Z,5.19
2024-03-17T00:30:54.981Z,5.18
2024-03-17T00:31:55.370Z,5.15
2024-03-17T00:32:55.792Z,5.16
2024-03-17T00:33:56.176Z,5.18
2024-03-17T00:34:56.549Z,5.16
2024-03-17T00:35:56.960Z,5.15
2024-03-17T00:36:57.387Z,5.13
2024-03-17T00:37:57.735Z,5.13
2024-03-17T00:38:58.084Z,5.12
2024-03-17T00:39:58.505Z,5.10
2024-03-17T00:40:58.802Z,5.10
2024-03-17T00:41:59.144Z,5.07
2024-03-17T00:42:59.477Z,5.05
2024-03-17T00:43:59.804Z,5.02
2024-03-17T00:45:00.210Z,5.05
2024-03-17T00:46:00.570Z,5.08
2024-03-17T00:47:00.973Z,5.10
2024-03-17T00:48:01.327Z,5.12
2024-03-17T00:49:01.672Z,5.10
2024-03-17T00:50:02.034Z,5.07
2024-03-17T00:51:02.369Z,5.05
2024-03-17T00:52:02.749Z,5.07
2024-03-17T00:53:03.160Z,5.10
2024-03-17T00:54:03.420Z,5.08
2024-03-17T00:55:03.826Z,5.08
2024-03-17T00:56:04.203Z,5.07
2024-03-17T00:57:04.611Z,5.07
2024-03-17T00:58:04.994Z,5.08
2024-03-17T00:59:05.303Z,5.07
2024-03-17T01:00:05.712Z,5.02
2024-03-17T01:01:06.125Z,5.01
2024-03-17T01:02:06.456Z,5.04
2024-03-17T01:03:06.811Z,5.00
2024-03-17T01:04:07.172Z,4.97
2024-03-17T01:05:07.529Z,4.98
2024-03-17T01:06:07.893Z,4.97
2024-03-17T01:07:08.272Z,4.95
2024-03-17T01:08:08.633Z,4.94
2024-03-17T01:09:08.980Z,4.92
2024-03-17T01:10:09.404Z,4.92
2024-03-17T01:11:09.769Z,4.90
2024-03-17T01:12:10.167Z,4.89
2024-03-17T01:13:10.405Z,4.87
2024-03-17T01:14:10.791Z,4.86
2024-03-17T01:15:11.153Z,4.83
2024-03-17T01:16:11.506Z,4.76
2024-03-17T01:17:11.898Z,4.71
2024-03-17T01:18:12.306Z,4.68
2024-03-17T01:19:12.702Z,4.70
2024-03-17T01:20:13.112Z,4.70
2024-03-17T01:21:13.474Z,4.74
2024-03-17T01:22:13.884Z,4.71
2024-03-17T01:23:14.217Z,4.68
2024-03-17T01:24:14.576Z,4.68
2024-03-17T01:25:14.925Z,4.66
2024-03-17T01:26:15.958Z,4.64
2024-03-17T01:27:15.658Z,4.61
2024-03-17T01:28:16.018Z,4.60
2024-03-17T01:29:16.367Z,4.64
2024-03-17T01:30:16.731Z,4.60
2024-03-17T01:31:17.069Z,4.61
2024-03-17T01:32:17.455Z,4.63
2024-03-17T01:33:17.816Z,4.60
2024-03-17T01:34:18.151Z,4.57
2024-03-17T01:35:18.503Z,4.57
2024-03-17T01:36:18.864Z,4.57
2024-03-17T01:37:19.212Z,4.57
2024-03-17T01:38:19.570Z,4.52
2024-03-17T01:39:19.922Z,4.49
2024-03-17T01:40:20.327Z,4.50
2024-03-17T01:41:20.663Z,4.50
2024-03-17T01:42:21.021Z,4.48
2024-03-17T01:43:21.372Z,4.50
2024-03-17T01:44:21.752Z,4.53
2024-03-17T01:45:22.129Z,4.52
2024-03-17T01:46:22.481Z,4.56
2024-03-17T01:47:22.839Z,4.53
2024-03-17T01:48:23.213Z,4.49
2024-03-17T01:49:23.569Z,4.48
2024-03-17T01:50:23.911Z,4.48
2024-03-17T01:51:24.267Z,4.45
2024-03-17T01:52:24.632Z,4.43
2024-03-17T01:53:24.996Z,4.45
2024-03-17T01:54:25.352Z,4.43
2024-03-17T01:55:25.712Z,4.43
2024-03-17T01:56:26.083Z,4.43
2024-03-17T01:57:26.470Z,4.40
2024-03-17T01:58:26.838Z,4.39
2024-03-17T01:59:27.201Z,4.40
2024-03-17T02:00:27.560Z,4.40
2024-03-17T02:01:27.914Z,4.38
2024-03-17T02:02:28.279Z,4.34
2024-03-17T02:03:28.656Z,4.34
2024-03-17T02:04:29.032Z,4.34
2024-03-17T02:05:29.435Z,4.32
2024-03-17T02:06:29.771Z,4.28
2024-03-17T02:07:30.145Z,4.30
2024-03-17T02:08:30.495Z,4.31
2024-03-17T02:09:30.850Z,4.32
2024-03-17T02:10:31.197Z,4.32
2024-03-17T02:11:31.558Z,4.36
2024-03-17T02:12:31.936Z,4.36
2024-03-17T02:13:32.329Z,4.38
2024-03-17T02:14:32.698Z,4.36
2024-03-17T02:15:33.077Z,4.31
2024-03-17T02:16:33.426Z,4.30
2024-03-17T02:17:33.793Z,4.32
2024-03-17T02:18:34.163Z,4.34
2024-03-17T02:19:35.500Z,4.32
2024-03-17T02:20:34.845Z,4.28
2024-03-17T02:21:35.197Z,4.25
2024-03-17T02:22:35.571Z,4.21
2024-03-17T02:23:39.375Z,4.18
2024-03-17T02:24:36.309Z,4.16
2024-03-17T02:25:36.679Z,4.12
2024-03-17T02:26:37.026Z,4.09
2024-03-17T02:27:37.500Z,4.10
2024-03-17T02:28:37.798Z,4.09
2024-03-17T02:29:38.176Z,4.10
2024-03-17T02:30:38.541Z,4.10
2024-03-17T02:31:38.904Z,4.10
2024-03-17T02:32:39.284Z,4.04
2024-03-17T02:33:39.609Z,4.06
2024-03-17T02:34:39.952Z,4.06
2024-03-17T02:35:40.309Z,4.06
2024-03-17T02:36:40.676Z,4.07
2024-03-17T02:37:41.067Z,4.04
2024-03-17T02:38:41.433Z,4.07
2024-03-17T02:39:41.808Z,4.06
2024-03-17T02:40:42.160Z,4.07
2024-03-17T02:41:42.535Z,4.06
2024-03-17T02:42:42.901Z,4.07
2024-03-17T02:43:43.277Z,4.06
2024-03-17T02:44:43.629Z,4.02
2024-03-17T02:45:43.986Z,4.03
2024-03-17T02:46:44.347Z,4.02
2024-03-17T02:47:44.724Z,4.00
2024-03-17T02:48:45.184Z,4.00
2024-03-17T02:49:45.485Z,4.00
2024-03-17T02:50:45.861Z,3.94
2024-03-17T02:51:46.221Z,3.94
2024-03-17T02:52:46.590Z,3.94
2024-03-17T02:53:46.942Z,3.88
2024-03-17T02:55:47.723Z,3.88
2024-03-17T02:56:48.072Z,3.85
2024-03-17T02:57:48.449Z,3.85
2024-03-17T02:58:48.792Z,3.85
2024-03-17T02:59:49.148Z,3.84
2024-03-17T03:00:49.520Z,3.85
2024-03-17T03:01:49.905Z,3.88
2024-03-17T03:02:50.281Z,3.86
2024-03-17T03:03:50.637Z,3.85
2024-03-17T03:04:51.011Z,3.88
2024-03-17T03:05:51.385Z,3.89
2024-03-17T03:06:51.778Z,3.88
2024-03-17T03:07:52.130Z,3.88
2024-03-17T03:08:52.499Z,3.88
2024-03-17T03:09:52.872Z,3.86
2024-03-17T03:10:53.243Z,3.84
2024-03-17T03:11:53.634Z,3.85
2024-03-17T03:12:54.011Z,3.84
2024-03-17T03:13:54.383Z,3.88
2024-03-17T03:14:54.751Z,3.85
2024-03-17T03:15:55.123Z,3.84
2024-03-17T03:16:55.511Z,3.84
2024-03-17T03:17:55.861Z,3.81
2024-03-17T03:18:56.234Z,3.81
2024-03-17T03:19:56.594Z,3.81
2024-03-17T03:20:56.981Z,3.78
2024-03-17T03:21:57.345Z,3.77
2024-03-17T03:22:57.715Z,3.76
2024-03-17T03:23:58.088Z,3.74
2024-03-17T03:24:58.460Z,3.74
2024-03-17T03:25:58.824Z,3.74
2024-03-17T03:26:59.274Z,3.74
2024-03-17T03:27:59.655Z,3.77
2024-03-17T03:29:00.029Z,3.77
2024-03-17T03:30:00.424Z,3.77
2024-03-17T03:31:00.766Z,3.73
2024-03-17T03:32:01.146Z,3.73
2024-03-17T03:33:03.557Z,3.71
2024-03-17T03:34:01.938Z,3.71
2024-03-17T03:35:02.307Z,3.71
2024-03-17T03:36:02.696Z,3.71
2024-03-17T03:37:03.085Z,3.70
2024-03-17T03:38:03.437Z,3.68
2024-03-17T03:39:03.799Z,3.68
2024-03-17T03:40:04.282Z,3.68
2024-03-17T03:41:04.506Z,3.66
2024-03-17T03:42:04.869Z,3.64
2024-03-17T03:43:05.298Z,3.64
2024-03-17T03:44:05.707Z,3.66
2024-03-17T03:45:06.060Z,3.66
2024-03-17T03:46:06.452Z,3.64
2024-03-17T03:47:06.819Z,3.63
2024-03-17T03:48:07.181Z,3.53
2024-03-17T03:49:07.559Z,3.49
2024-03-17T03:50:07.929Z,3.49
2024-03-17T03:51:08.264Z,3.52
2024-03-17T03:52:08.605Z,3.50
2024-03-17T03:53:08.960Z,3.50
2024-03-17T03:54:09.317Z,3.49
2024-03-17T03:55:10.627Z,3.49
2024-03-17T03:56:10.153Z,3.50
2024-03-17T03:57:10.396Z,3.50
2024-03-17T03:58:10.817Z,3.52
2024-03-17T03:59:12.054Z,3.52
2024-03-17T04:00:11.497Z,3.49
2024-03-17T04:01:12.782Z,3.48
2024-03-17T04:02:12.266Z,3.48
2024-03-17T04:03:12.639Z,3.50
2024-03-17T04:04:13.002Z,3.49
2024-03-17T04:05:13.368Z,3.46
2024-03-17T04:06:14.518Z,3.45
2024-03-17T04:07:14.113Z,3.45
2024-03-17T04:08:21.498Z,3.43
2024-03-17T04:09:14.784Z,3.41
2024-03-17T04:10:15.166Z,3.41
2024-03-17T04:11:15.534Z,3.40
2024-03-17T04:12:15.916Z,3.34
2024-03-17T04:13:16.309Z,3.34
2024-03-17T04:14:17.469Z,3.31
2024-03-17T04:15:17.024Z,3.30
2024-03-17T04:16:17.385Z,3.31
2024-03-17T04:17:17.755Z,3.30
2024-03-17T04:18:18.120Z,3.29
2024-03-17T04:19:18.494Z,3.30
2024-03-17T04:20:18.858Z,3.29
2024-03-17T04:21:19.358Z,3.29
2024-03-17T04:22:19.623Z,3.27
2024-03-17T04:23:20.069Z,3.27
2024-03-17T04:24:20.451Z,3.29
2024-03-17T04:25:20.818Z,3.29
2024-03-17T04:26:21.184Z,3.31
2024-03-17T04:27:21.551Z,3.30
2024-03-17T04:28:21.924Z,3.31
2024-03-17T04:29:22.368Z,3.34
2024-03-17T04:30:22.670Z,3.36
2024-03-17T04:31:23.037Z,3.40
2024-03-17T04:32:23.439Z,3.41
2024-03-17T04:33:23.793Z,3.40
2024-03-17T04:34:24.175Z,3.34
2024-03-17T04:35:24.548Z,3.34
2024-03-17T04:36:24.924Z,3.37
2024-03-17T04:37:25.302Z,3.36
2024-03-17T04:38:25.687Z,3.34
2024-03-17T04:39:26.056Z,3.37
2024-03-17T04:40:26.422Z,3.36
2024-03-17T04:41:26.850Z,3.34
2024-03-17T04:42:27.227Z,3.34
2024-03-17T04:43:28.532Z,3.36
2024-03-17T04:44:27.998Z,3.40
2024-03-17T04:45:28.349Z,3.41
2024-03-17T04:46:28.713Z,3.41
2024-03-17T04:47:29.101Z,3.41
2024-03-17T04:48:29.535Z,3.45
2024-03-17T04:49:29.888Z,3.46
2024-03-17T04:50:30.246Z,3.46
2024-03-17T04:51:30.622Z,3.45
2024-03-17T04:52:30.985Z,3.48
2024-03-17T04:53:31.356Z,3.46
2024-03-17T04:54:35.278Z,3.48
2024-03-17T04:55:32.132Z,3.46
2024-03-17T04:56:32.496Z,3.49
2024-03-17T04:57:32.877Z,3.48
2024-03-17T04:58:33.254Z,3.49
2024-03-17T04:59:33.600Z,3.48
2024-03-17T05:00:33.971Z,3.49
2024-03-17T05:01:34.359Z,3.46
2024-03-17T05:02:34.831Z,3.45
2024-03-17T05:03:35.082Z,3.41
2024-03-17T05:04:35.431Z,3.43
2024-03-17T05:05:35.784Z,3.41
2024-03-17T05:06:36.124Z,3.45
2024-03-17T05:07:37.972Z,3.41
2024-03-17T05:08:36.868Z,3.41
2024-03-17T05:09:37.237Z,3.41
2024-03-17T05:10:37.594Z,3.41
2024-03-17T05:11:37.950Z,3.40
2024-03-17T05:12:38.481Z,3.37
2024-03-17T05:13:38.687Z,3.37
2024-03-17T05:14:39.067Z,3.37
2024-03-17T05:15:39.403Z,3.36
2024-03-17T05:16:39.772Z,3.34
2024-03-17T05:17:40.148Z,3.33
2024-03-17T05:18:40.529Z,3.36
2024-03-17T05:19:40.893Z,3.40
2024-03-17T05:20:41.275Z,3.40
2024-03-17T05:21:42.650Z,3.37
2024-03-17T05:22:42.005Z,3.40
2024-03-17T05:23:42.366Z,3.36
2024-03-17T05:24:42.720Z,3.37
2024-03-17T05:25:43.077Z,3.41
2024-03-17T05:26:43.469Z,3.40
2024-03-17T05:27:43.849Z,3.40
2024-03-17T05:28:44.214Z,3.40
2024-03-17T05:29:44.630Z,3.41
2024-03-17T05:30:45.006Z,3.37
2024-03-17T05:31:45.376Z,3.36
2024-03-17T05:32:45.747Z,3.40
2024-03-17T05:33:46.097Z,3.43
2024-03-17T05:34:46.461Z,3.46
2024-03-17T05:35:46.812Z,3.48
2024-03-17T05:36:47.186Z,3.49
2024-03-17T05:37:47.557Z,3.48
2024-03-17T05:38:47.929Z,3.49
2024-03-17T05:39:48.335Z,3.50
2024-03-17T05:40:48.692Z,3.52
2024-03-17T05:41:49.048Z,3.53
2024-03-17T05:42:49.481Z,3.52
2024-03-17T05:43:49.788Z,3.56
2024-03-17T05:44:50.152Z,3.56
2024-03-17T05:45:50.508Z,3.55
2024-03-17T05:46:50.886Z,3.61
2024-03-17T05:47:51.253Z,3.59
2024-03-17T05:48:51.603Z,3.61
2024-03-17T05:49:51.947Z,3.59
2024-03-17T05:50:52.289Z,3.63
2024-03-17T05:51:52.628Z,3.64
2024-03-17T05:52:53.004Z,3.67
2024-03-17T05:53:53.351Z,3.70
2024-03-17T05:54:53.719Z,3.67
2024-03-17T05:55:54.073Z,3.70
2024-03-17T05:56:54.427Z,3.74
2024-03-17T05:57:54.774Z,3.76
2024-03-17T05:58:55.138Z,3.76
2024-03-17T05:59:55.524Z,3.78
2024-03-17T06:00:55.888Z,3.82
2024-03-17T06:01:56.244Z,3.84
2024-03-17T06:02:56.624Z,3.88
2024-03-17T06:03:57.046Z,3.89
2024-03-17T06:04:57.384Z,3.89
2024-03-17T06:05:57.732Z,3.86
2024-03-17T06:06:58.091Z,3.88
2024-03-17T06:07:58.454Z,3.89
2024-03-17T06:08:58.801Z,3.91
2024-03-17T06:09:59.153Z,3.91
2024-03-17T06:10:59.520Z,3.92
2024-03-17T06:11:59.930Z,3.99
2024-03-17T06:13:00.240Z,4.00
2024-03-17T06:14:00.605Z,4.07
2024-03-17T06:15:00.967Z,4.10
2024-03-17T06:16:01.321Z,4.10
2024-03-17T06:17:01.685Z,4.14
2024-03-17T06:18:02.039Z,4.12
2024-03-17T06:19:02.392Z,4.07
2024-03-17T06:20:02.777Z,4.10
2024-03-17T06:21:03.122Z,4.20
2024-03-17T06:22:03.487Z,4.31
2024-03-17T06:23:03.843Z,4.38
2024-03-17T06:24:04.186Z,4.38
2024-03-17T06:25:04.558Z,4.39
2024-03-17T06:26:04.891Z,4.46
2024-03-17T06:27:05.259Z,4.52
2024-03-17T06:28:05.629Z,4.61
2024-03-17T06:29:05.984Z,4.66
2024-03-17T06:30:06.344Z,4.58
2024-03-17T06:31:06.687Z,4.57
2024-03-17T06:32:07.021Z,4.57
2024-03-17T06:33:07.408Z,4.58
2024-03-17T06:34:07.753Z,4.67
2024-03-17T06:35:08.108Z,4.78
2024-03-17T06:36:08.441Z,4.90
2024-03-17T06:37:08.816Z,4.97
2024-03-17T06:38:09.161Z,4.95
2024-03-17T06:39:09.493Z,5.05
2024-03-17T06:40:09.867Z,5.07
2024-03-17T06:41:10.238Z,5.12
2024-03-17T06:42:10.575Z,5.15
2024-03-17T06:43:10.950Z,5.31
2024-03-17T06:44:11.275Z,5.49
2024-03-17T06:45:11.649Z,5.52
2024-03-17T06:46:11.996Z,5.54
2024-03-17T06:47:12.327Z,5.38
2024-03-17T06:48:12.674Z,5.29
2024-03-17T06:49:13.019Z,5.26
2024-03-17T06:50:13.356Z,5.20
2024-03-17T06:51:13.700Z,5.20
2024-03-17T06:52:14.074Z,5.22
2024-03-17T06:53:14.377Z,5.23
2024-03-17T06:54:14.718Z,5.28
2024-03-17T06:55:15.093Z,5.37
2024-03-17T06:56:15.404Z,5.49
2024-03-17T06:57:15.757Z,5.77
2024-03-17T06:58:16.126Z,6.01
2024-03-17T06:59:16.460Z,6.19
2024-03-17T07:00:16.813Z,6.32
2024-03-17T07:01:17.166Z,6.25
2024-03-17T07:02:17.494Z,6.20
2024-03-17T07:03:17.832Z,6.16
2024-03-17T07:04:18.171Z,6.17
2024-03-17T07:05:18.499Z,6.34
2024-03-17T07:06:18.824Z,6.31
2024-03-17T07:07:19.156Z,6.38
2024-03-17T07:08:19.484Z,6.53
2024-03-17T07:09:19.802Z,6.82
2024-03-17T07:10:20.154Z,6.85
2024-03-17T07:11:20.482Z,6.90
2024-03-17T07:12:20.808Z,7.07
2024-03-17T07:13:21.148Z,6.87
2024-03-17T07:14:21.476Z,6.83
2024-03-17T07:15:21.814Z,6.77
2024-03-17T07:16:22.146Z,6.62
2024-03-17T07:17:22.479Z,6.49
2024-03-17T07:18:22.820Z,6.52
2024-03-17T07:19:23.150Z,6.44
2024-03-17T07:20:23.463Z,6.47
2024-03-17T07:21:23.790Z,6.60
2024-03-17T07:22:24.129Z,6.83
2024-03-17T07:23:24.447Z,6.80
2024-03-17T07:24:24.768Z,6.71
2024-03-17T07:25:25.104Z,6.82
2024-03-17T07:26:25.433Z,6.97
2024-03-17T07:27:25.768Z,7.11
2024-03-17T07:28:26.097Z,7.41
2024-03-17T07:29:26.411Z,7.55
2024-03-17T07:30:26.744Z,8.26
2024-03-17T07:31:27.055Z,8.46
2024-03-17T07:32:27.394Z,8.56
2024-03-17T07:33:27.660Z,8.95
2024-03-17T07:34:27.956Z,9.40
2024-03-17T07:35:28.245Z,9.03
2024-03-17T07:36:28.646Z,8.68
2024-03-17T07:37:28.919Z,8.75
2024-03-17T07:38:29.200Z,8.93
2024-03-17T07:39:29.569Z,8.56
2024-03-17T07:40:29.835Z,8.44
2024-03-17T07:41:30.177Z,8.31
2024-03-17T07:42:30.564Z,7.90
2024-03-17T07:43:30.825Z,8.13
2024-03-17T07:44:31.130Z,8.08
2024-03-17T07:45:31.379Z,7.93
2024-03-17T07:46:31.754Z,7.96
2024-03-17T07:47:32.025Z,7.87
2024-03-17T07:48:32.400Z,7.81
2024-03-17T07:49:32.656Z,7.81
2024-03-17T07:50:33.025Z,8.21
2024-03-17T07:51:33.399Z,8.95
2024-03-17T07:52:33.784Z,9.55
2024-03-17T07:53:34.039Z,9.16
2024-03-17T07:54:34.451Z,8.72
2024-03-17T07:55:34.784Z,8.64
2024-03-17T07:56:35.150Z,8.27
2024-03-17T07:57:35.552Z,8.45
2024-03-17T07:58:35.807Z,8.78
2024-03-17T07:59:36.179Z,9.29
2024-03-17T08:00:36.552Z,9.27
2024-03-17T08:01:36.887Z,9.70
2024-03-17T08:02:37.261Z,10.10
2024-03-17T08:03:37.470Z,10.38
2024-03-17T08:04:37.780Z,10.48
2024-03-17T08:05:38.179Z,10.23
2024-03-17T08:06:38.393Z,9.72
2024-03-17T08:07:38.726Z,10.00
2024-03-17T08:08:39.038Z,10.00
2024-03-17T08:09:39.350Z,10.39
2024-03-17T08:10:39.694Z,10.72
2024-03-17T08:11:39.951Z,10.64
2024-03-17T08:12:40.259Z,10.27
2024-03-17T08:13:40.536Z,10.24
2024-03-17T08:14:40.843Z,10.25
2024-03-17T08:15:41.114Z,10.15
2024-03-17T08:16:41.393Z,10.00
2024-03-17T08:17:41.676Z,9.80
2024-03-17T08:18:41.938Z,10.30
2024-03-17T08:19:42.222Z,10.82
2024-03-17T08:20:42.510Z,11.65
2024-03-17T08:21:42.770Z,12.23
2024-03-17T08:22:43.025Z,12.54
2024-03-17T08:23:43.262Z,12.54
2024-03-17T08:24:43.494Z,13.67
2024-03-17T08:25:43.708Z,14.53
2024-03-17T08:26:44.009Z,15.39
2024-03-17T08:27:44.167Z,15.51
2024-03-17T08:28:44.373Z,14.62
2024-03-17T08:29:44.611Z,14.67
2024-03-17T08:30:44.821Z,14.68
2024-03-17T08:31:45.020Z,13.02
2024-03-17T08:32:45.261Z,12.84
2024-03-17T08:33:45.462Z,13.75
2024-03-17T08:34:45.662Z,14.13
2024-03-17T08:35:45.835Z,13.52
2024-03-17T08:36:46.043Z,12.43
2024-03-17T08:37:46.264Z,12.45
2024-03-17T08:38:46.481Z,13.87
2024-03-17T08:39:46.663Z,14.82
2024-03-17T08:40:46.864Z,15.19
2024-03-17T08:41:47.065Z,13.54
2024-03-17T08:42:47.268Z,13.17
2024-03-17T08:43:47.465Z,14.05
2024-03-17T08:44:47.666Z,13.20
2024-03-17T08:45:52.917Z,12.81
2024-03-17T08:46:49.026Z,12.57
2024-03-17T08:47:48.235Z,11.59
2024-03-17T08:48:48.448Z,10.79
2024-03-17T08:49:48.665Z,11.27
2024-03-17T08:50:48.968Z,12.69
2024-03-17T08:51:49.165Z,13.58
2024-03-17T08:52:49.386Z,13.61
2024-03-17T08:53:49.585Z,12.73
2024-03-17T08:54:49.881Z,12.48
2024-03-17T08:55:50.102Z,12.70
2024-03-17T08:56:50.324Z,12.15
2024-03-17T08:57:50.552Z,11.38
2024-03-17T08:58:50.770Z,12.15
2024-03-17T08:59:50.966Z,12.29
2024-03-17T09:00:51.290Z,13.26
2024-03-17T09:01:51.499Z,13.40
2024-03-17T09:02:51.835Z,13.23
2024-03-17T09:03:52.027Z,12.43
2024-03-17T09:04:52.238Z,11.77
2024-03-17T09:05:52.449Z,11.35
2024-03-17T09:06:52.784Z,10.89
2024-03-17T09:07:53.027Z,10.64
2024-03-17T09:08:53.258Z,10.92
2024-03-17T09:09:53.480Z,10.67
2024-03-17T09:10:53.832Z,10.09
2024-03-17T09:11:54.027Z,9.87
2024-03-17T09:12:54.277Z,11.15
2024-03-17T09:13:54.519Z,13.37
2024-03-17T09:14:54.745Z,14.26
2024-03-17T09:15:54.956Z,13.79
2024-03-17T09:16:55.191Z,13.45
2024-03-17T09:17:55.421Z,12.84
2024-03-17T09:18:55.646Z,12.14
2024-03-17T09:19:55.859Z,12.02
2024-03-17T09:20:56.091Z,11.74
2024-03-17T09:21:56.319Z,12.18
2024-03-17T09:22:56.553Z,11.73
2024-03-17T09:23:56.781Z,11.25
2024-03-17T09:24:57.097Z,10.77
2024-03-17T09:25:57.326Z,11.67
2024-03-17T09:26:57.576Z,12.30
2024-03-17T09:27:57.824Z,12.88
2024-03-17T09:28:58.072Z,13.46
2024-03-17T09:29:58.297Z,15.10
2024-03-17T09:30:58.632Z,14.63
2024-03-17T09:31:58.843Z,13.26
2024-03-17T09:32:59.189Z,12.68
2024-03-17T09:33:59.416Z,12.62
2024-03-17T09:34:59.645Z,12.87
2024-03-17T09:35:59.873Z,12.37
2024-03-17T09:37:00.140Z,12.21
2024-03-17T09:38:00.377Z,12.39
2024-03-17T09:39:00.565Z,12.20
2024-03-17T09:40:00.793Z,11.26
2024-03-17T09:41:01.027Z,10.48
2024-03-17T09:42:01.271Z,9.95
2024-03-17T09:43:03.521Z,9.59
2024-03-17T09:44:01.817Z,9.40
2024-03-17T09:45:02.066Z,9.51
2024-03-17T09:46:02.340Z,9.56
2024-03-17T09:47:02.647Z,9.82
2024-03-17T09:48:02.923Z,10.28
2024-03-17T09:49:03.221Z,10.36
2024-03-17T09:50:03.516Z,11.63
2024-03-17T09:51:03.824Z,13.61
2024-03-17T09:52:04.067Z,15.41
2024-03-17T09:53:04.353Z,16.31
2024-03-17T09:54:04.610Z,16.55
2024-03-17T09:55:04.878Z,16.32
2024-03-17T09:56:05.084Z,15.62
2024-03-17T09:57:05.322Z,16.32
2024-03-17T09:58:05.575Z,16.80
2024-03-17T09:59:05.792Z,16.29
2024-03-17T10:00:06.018Z,16.29
2024-03-17T10:01:06.214Z,15.10
2024-03-17T10:02:06.416Z,13.91
2024-03-17T10:03:06.642Z,13.08
2024-03-17T10:04:06.845Z,12.53
2024-03-17T10:05:07.059Z,11.71
2024-03-17T10:06:07.256Z,12.21
2024-03-17T10:07:07.568Z,12.12
2024-03-17T10:08:07.810Z,11.81
2024-03-17T10:09:08.022Z,11.96
2024-03-17T10:10:08.259Z,12.83
2024-03-17T10:11:08.486Z,13.47
2024-03-17T10:12:08.780Z,13.26
2024-03-17T10:13:09.036Z,12.75
2024-03-17T10:14:09.263Z,12.21
2024-03-17T10:15:09.994Z,12.17
2024-03-17T10:16:09.771Z,13.65
2024-03-17T10:17:10.003Z,14.59
2024-03-17T10:18:10.241Z,15.19
2024-03-17T10:19:10.474Z,16.34
2024-03-17T10:20:10.681Z,17.87
2024-03-17T10:21:10.912Z,17.23
2024-03-17T10:22:11.109Z,15.70
2024-03-17T10:23:11.380Z,15.33
2024-03-17T10:24:11.580Z,16.32
2024-03-17T10:25:11.874Z,15.72
2024-03-17T10:26:12.082Z,15.66
2024-03-17T10:27:12.323Z,14.48
2024-03-17T10:28:12.519Z,13.76
2024-03-17T10:29:12.728Z,13.02
2024-03-17T10:30:12.930Z,11.71
2024-03-17T10:31:13.259Z,11.02
2024-03-17T10:32:13.467Z,10.92
2024-03-17T10:33:13.705Z,11.10
2024-03-17T10:34:20.550Z,11.05
2024-03-17T10:35:15.200Z,11.12
2024-03-17T10:36:14.432Z,10.94
2024-03-17T10:37:14.725Z,11.18
2024-03-17T10:38:14.951Z,11.34
2024-03-17T10:39:15.206Z,10.82
2024-03-17T10:40:15.452Z,10.67
2024-03-17T10:41:15.760Z,11.18
2024-03-17T10:42:16.038Z,12.43
2024-03-17T10:43:16.355Z,12.94
2024-03-17T10:44:16.623Z,12.30
2024-03-17T10:45:16.907Z,12.17
2024-03-17T10:46:17.192Z,11.58
2024-03-17T10:47:17.457Z,10.87
2024-03-17T10:48:17.748Z,10.43
2024-03-17T10:49:18.031Z,10.05
2024-03-17T10:50:18.329Z,9.97
2024-03-17T10:51:18.624Z,10.13
2024-03-17T10:52:18.950Z,12.00
2024-03-17T10:53:19.236Z,13.55
2024-03-17T10:54:19.543Z,13.71
2024-03-17T10:55:19.884Z,14.68
2024-03-17T10:56:20.182Z,15.85
2024-03-17T10:57:20.464Z,16.59
2024-03-17T10:58:20.752Z,17.19
2024-03-17T10:59:20.996Z,16.61
2024-03-17T11:00:21.267Z,17.02
2024-03-17T11:01:21.538Z,16.89
2024-03-17T11:02:21.763Z,16.91
2024-03-17T11:03:22.005Z,17.07
2024-03-17T11:04:22.250Z,17.59
2024-03-17T11:05:22.428Z,18.15
2024-03-17T11:06:22.666Z,18.26
2024-03-17T11:07:22.915Z,18.71
2024-03-17T11:08:32.077Z,19.11
2024-03-17T11:09:24.318Z,19.67
2024-03-17T11:10:23.563Z,19.17
2024-03-17T11:11:23.747Z,19.38
2024-03-17T11:12:26.179Z,19.79
2024-03-17T11:13:24.175Z,19.00
2024-03-17T11:14:24.338Z,18.28
2024-03-17T11:15:24.543Z,18.00
2024-03-17T11:16:24.723Z,15.92
2024-03-17T11:17:24.933Z,15.08
2024-03-17T11:18:25.220Z,14.51
2024-03-17T11:19:25.318Z,13.75
2024-03-17T11:20:25.496Z,12.93
2024-03-17T11:21:25.686Z,12.05
2024-03-17T11:22:25.904Z,11.62
2024-03-17T11:23:28.334Z,11.18
2024-03-17T11:24:26.356Z,11.71
2024-03-17T11:25:26.586Z,12.98
2024-03-17T11:26:26.790Z,13.79
2024-03-17T11:27:27.004Z,15.36
2024-03-17T11:28:27.234Z,16.68
2024-03-17T11:29:27.457Z,17.07
2024-03-17T11:30:27.687Z,16.68
2024-03-17T11:31:27.917Z,16.84
2024-03-17T11:32:28.170Z,17.38
2024-03-17T11:33:28.366Z,18.18
2024-03-17T11:34:28.571Z,18.63
2024-03-17T11:35:28.778Z,18.96
2024-03-17T11:36:28.987Z,19.45
2024-03-17T11:37:29.197Z,19.29
2024-03-17T11:38:29.423Z,19.19
2024-03-17T11:39:29.664Z,19.81
2024-03-17T11:40:29.858Z,19.87
2024-03-17T11:41:30.037Z,19.12
2024-03-17T11:42:30.234Z,17.73
2024-03-17T11:43:30.533Z,16.46
2024-03-17T11:44:30.688Z,15.50
2024-03-17T11:45:30.988Z,14.67
2024-03-17T11:46:31.181Z,14.70
2024-03-17T11:47:31.337Z,14.94
2024-03-17T11:48:31.649Z,16.43
2024-03-17T11:49:31.870Z,17.27
2024-03-17T11:50:32.084Z,17.23
2024-03-17T11:51:32.299Z,16.69
2024-03-17T11:52:32.505Z,16.68
2024-03-17T11:53:32.757Z,16.28
2024-03-17T11:54:32.955Z,16.82
2024-03-17T11:55:33.148Z,16.16
2024-03-17T11:56:33.479Z,15.60
2024-03-17T11:57:33.686Z,15.88
2024-03-17T11:58:33.936Z,15.51
2024-03-17T11:59:34.113Z,15.25
2024-03-17T12:00:35.285Z,14.93
2024-03-17T12:01:34.585Z,14.53
2024-03-17T12:02:34.788Z,14.30
2024-03-17T12:03:35.013Z,13.85
2024-03-17T12:04:35.222Z,14.01
2024-03-17T12:05:35.413Z,14.26
2024-03-17T12:06:35.626Z,14.63
2024-03-17T12:07:35.855Z,14.52
2024-03-17T12:08:36.077Z,15.19
2024-03-17T12:09:36.296Z,14.55
2024-03-17T12:10:36.514Z,14.12
2024-03-17T12:11:36.741Z,13.61
2024-03-17T12:12:36.924Z,12.86
2024-03-17T12:13:37.143Z,12.58
2024-03-17T12:14:37.380Z,12.30
2024-03-17T12:15:37.667Z,12.02
2024-03-17T12:16:38.005Z,12.21
2024-03-17T12:17:38.236Z,12.62
2024-03-17T12:18:38.472Z,12.93
2024-03-17T12:19:45.744Z,12.93
2024-03-17T12:20:41.644Z,12.84
2024-03-17T12:21:40.829Z,12.44
2024-03-17T12:22:39.506Z,12.03
2024-03-17T12:23:39.753Z,11.65
2024-03-17T12:24:40.040Z,11.62
2024-03-17T12:25:40.272Z,11.48
2024-03-17T12:26:40.529Z,11.53
2024-03-17T12:27:40.789Z,11.65
2024-03-17T12:28:41.056Z,11.65
2024-03-17T12:29:41.354Z,11.71
2024-03-17T12:30:41.649Z,11.76
2024-03-17T12:31:42.052Z,11.86
2024-03-17T12:32:42.305Z,11.63
2024-03-17T12:33:42.606Z,11.55
2024-03-17T12:34:42.915Z,11.55
2024-03-17T12:35:43.207Z,11.48
2024-03-17T12:36:43.518Z,11.35
2024-03-17T12:37:43.821Z,11.34
2024-03-17T12:38:44.130Z,11.52
2024-03-17T12:39:44.452Z,12.57
2024-03-17T12:40:44.786Z,12.99
2024-03-17T12:41:45.073Z,13.12
2024-03-17T12:42:45.387Z,13.50
2024-03-17T12:43:45.693Z,13.93
2024-03-17T12:44:46.022Z,14.22
2024-03-17T12:45:46.332Z,15.17
2024-03-17T12:46:46.622Z,15.41
2024-03-17T12:47:46.906Z,15.98
2024-03-17T12:48:47.176Z,16.21
2024-03-17T12:49:47.472Z,16.43
2024-03-17T12:50:47.730Z,16.25
2024-03-17T12:51:47.966Z,16.34
2024-03-17T12:52:48.229Z,16.97
2024-03-17T12:53:48.474Z,17.65
2024-03-17T12:54:48.734Z,16.62
2024-03-17T12:55:48.970Z,17.04
2024-03-17T12:56:49.213Z,17.90
2024-03-17T12:57:49.440Z,18.51
2024-03-17T12:58:49.682Z,18.51
2024-03-17T12:59:49.924Z,18.58
2024-03-17T13:00:50.148Z,18.49
2024-03-17T13:01:50.360Z,18.37
2024-03-17T13:02:50.583Z,18.30
2024-03-17T13:03:50.830Z,18.37
2024-03-17T13:04:51.050Z,17.75
2024-03-17T13:05:51.265Z,17.39
2024-03-17T13:06:51.472Z,16.73
2024-03-17T13:07:51.680Z,15.63
2024-03-17T13:08:51.893Z,15.04
2024-03-17T13:09:52.105Z,15.11
2024-03-17T13:10:52.327Z,14.28
2024-03-17T13:11:52.540Z,13.60
2024-03-17T13:12:52.851Z,13.43
2024-03-17T13:13:53.045Z,13.16